Alba, TX

3:18 AM CST on February 01, 2015 (GMT -0600)
Brook Harbor, Lake Fork | Change Station
CLOSE
Current Station
Personal Weather Station
Location: Yantis, TX
Elevation: 412 ft
Nearby Weather Stations

Elev 412 ft 32.89 °N, 95.53 °W | Updated 8 seconds ago

Overcast
Overcast
55.9 °F
Feels Like 55.9 °F
N
7.0
Wind Variable Wind from SSE
Gusts 18.0 mph

Today
High -- | Low -- °F
--% Chance of Precip.
Yesterday
High -- | Low -- °F
Precip. -- in
7:17 AM 5:55 PM
Waxing Gibbous, 94% visible
Pressure 29.89 in
Visibility 6.0 miles
Clouds Overcast 800 ft
Dew Point 54 °F
Humidity 93%
Rainfall 0.02 in
Snow Depth Not available.
UV 0 out of 12
Pollen 7.00 out of 12
Air Quality Not available.
Flu Activity Not available.
METAR KJDD 010855Z AUTO 18012G19KT 6SM BR OVC008 14/13 A2989 RMK AO2

More Conditions Fewer Conditions

Pressure 29.89 in
Visibility 6.0 miles
Clouds Overcast 800 ft
Dew Point 54 °F
Humidity 93%
Rainfall 0.02 in
Snow Depth Not available.
UV 0 out of 12
Pollen 7.00 out of 12
Air Quality Not available.
Flu Activity Not available.
METAR KJDD 010855Z AUTO 18012G19KT 6SM BR OVC008 14/13 A2989 RMK AO2

More Conditions Fewer Conditions

Nowcast | as of 1:31 am CST on February 1, 2015

Areas of light rain will continue to intermittently affect parts of the region during the overnight hours. Rainfall amounts will be light...generally less than a tenth of an inch through 4 am.

×

10-Day Weather Forecast

Almanac

Astronomy

Feb. 01, 2015 Rise Set
Actual Time
Civil Twilight
Nautical Twilight
Astronomical Twilight
Moon
Length of Visible Light
Length of Day
Tomorrow will be .
, % of the Moon is Illuminated

Today's Extremes

State Highs State Lows

Community

WunderPhotos

Upload Photos

1,792,338 photos uploaded!

WunderBlogs® & News

Nearby

Air Quality

  Air Quality AQ Index Pollutant
Not available.

Snow Depth

Station Depth Elevation

Earthquake Activity

City Distance Mag. Time & Date
Minimum magnitude displayed is 2.5.

Coastal Water Temperatures

Place Temperature

Nearby Weather Stations